createdAt,value
2023-01-22T00:00:15.396Z,1008.45
2023-01-22T00:01:14.702Z,1008.46
2023-01-22T00:02:14.755Z,1008.36
2023-01-22T00:03:14.711Z,1008.45
2023-01-22T00:04:14.681Z,1008.50
2023-01-22T00:05:14.662Z,1008.44
2023-01-22T00:06:14.666Z,1008.47
2023-01-22T00:07:14.675Z,1008.45
2023-01-22T00:08:14.638Z,1008.57
2023-01-22T00:09:14.627Z,1008.54
2023-01-22T00:10:14.627Z,1008.48
2023-01-22T00:11:14.609Z,1008.47
2023-01-22T00:12:14.667Z,1008.38
2023-01-22T00:13:14.560Z,1008.40
2023-01-22T00:14:14.611Z,1008.46
2023-01-22T00:15:14.545Z,1008.40
2023-01-22T00:16:14.646Z,1008.41
2023-01-22T00:17:14.568Z,1008.40
2023-01-22T00:18:14.505Z,1008.39
2023-01-22T00:19:14.522Z,1008.38
2023-01-22T00:20:14.520Z,1008.38
2023-01-22T00:21:14.514Z,1008.43
2023-01-22T00:22:14.494Z,1008.44
2023-01-22T00:23:14.514Z,1008.33
2023-01-22T00:24:14.439Z,1008.37
2023-01-22T00:25:14.459Z,1008.34
2023-01-22T00:26:14.414Z,1008.32
2023-01-22T00:27:14.415Z,1008.32
2023-01-22T00:28:14.382Z,1008.39
2023-01-22T00:29:14.404Z,1008.40
2023-01-22T00:30:14.372Z,1008.33
2023-01-22T00:31:14.422Z,1008.31
2023-01-22T00:32:14.464Z,1008.34
2023-01-22T00:33:14.376Z,1008.34
2023-01-22T00:34:14.336Z,1008.34
2023-01-22T00:35:14.311Z,1008.31
2023-01-22T00:36:14.312Z,1008.30
2023-01-22T00:37:14.304Z,1008.36
2023-01-22T00:38:14.311Z,1008.34
2023-01-22T00:39:14.294Z,1008.36
2023-01-22T00:40:14.277Z,1008.34
2023-01-22T00:41:14.257Z,1008.35
2023-01-22T00:42:14.252Z,1008.30
2023-01-22T00:43:14.238Z,1008.27
2023-01-22T00:44:14.225Z,1008.30
2023-01-22T00:45:14.229Z,1008.25
2023-01-22T00:46:14.247Z,1008.28
2023-01-22T00:47:14.243Z,1008.32
2023-01-22T00:48:14.173Z,1008.33
2023-01-22T00:49:14.174Z,1008.26
2023-01-22T00:50:14.152Z,1008.30
2023-01-22T00:51:14.273Z,1008.27
2023-01-22T00:52:14.137Z,1008.27
2023-01-22T00:53:14.124Z,1008.31
2023-01-22T00:54:14.090Z,1008.26
2023-01-22T00:55:14.138Z,1008.24
2023-01-22T00:56:14.100Z,1008.21
2023-01-22T00:57:14.124Z,1008.27
2023-01-22T00:58:14.049Z,1008.25
2023-01-22T00:59:14.116Z,1008.27
2023-01-22T01:00:14.254Z,1008.26
2023-01-22T01:01:14.121Z,1008.31
2023-01-22T01:02:14.103Z,1008.23
2023-01-22T01:03:14.018Z,1008.24
2023-01-22T01:04:13.999Z,1008.24
2023-01-22T01:05:14.009Z,1008.27
2023-01-22T01:06:13.986Z,1008.32
2023-01-22T01:07:13.977Z,1008.24
2023-01-22T01:08:13.941Z,1008.27
2023-01-22T01:09:14.004Z,1008.31
2023-01-22T01:10:13.919Z,1008.31
2023-01-22T01:11:13.946Z,1008.27
2023-01-22T01:12:13.895Z,1008.33
2023-01-22T01:13:13.907Z,1008.30
2023-01-22T01:14:13.898Z,1008.26
2023-01-22T01:15:13.889Z,1008.31
2023-01-22T01:16:13.906Z,1008.30
2023-01-22T01:17:13.882Z,1008.28
2023-01-22T01:18:13.844Z,1008.30
2023-01-22T01:19:13.829Z,1008.30
2023-01-22T01:20:13.806Z,1008.36
2023-01-22T01:21:13.824Z,1008.31
2023-01-22T01:22:13.780Z,1008.29
2023-01-22T01:23:13.777Z,1008.30
2023-01-22T01:24:13.756Z,1008.35
2023-01-22T01:25:13.750Z,1008.28
2023-01-22T01:26:13.751Z,1008.35
2023-01-22T01:27:13.745Z,1008.32
2023-01-22T01:28:13.723Z,1008.29
2023-01-22T01:29:13.731Z,1008.31
2023-01-22T01:30:13.688Z,1008.32
2023-01-22T01:31:13.804Z,1008.26
2023-01-22T01:32:13.665Z,1008.34
2023-01-22T01:33:13.690Z,1008.26
2023-01-22T01:34:13.661Z,1008.30
2023-01-22T01:35:13.635Z,1008.28
2023-01-22T01:36:13.643Z,1008.27
2023-01-22T01:37:13.692Z,1008.30
2023-01-22T01:38:13.660Z,1008.27
2023-01-22T01:39:13.596Z,1008.31
2023-01-22T01:40:13.600Z,1008.24
2023-01-22T01:41:13.571Z,1008.34
2023-01-22T01:42:13.565Z,1008.30
2023-01-22T01:44:11.320Z,1008.26
2023-01-22T01:45:11.287Z,1008.21
2023-01-22T01:46:11.285Z,1008.27
2023-01-22T01:47:11.279Z,1008.28
2023-01-22T01:48:11.275Z,1008.25
2023-01-22T01:49:11.266Z,1008.25
2023-01-22T01:50:11.229Z,1008.25
2023-01-22T01:51:11.221Z,1008.27
2023-01-22T01:52:11.208Z,1008.29
2023-01-22T01:53:11.205Z,1008.23
2023-01-22T01:54:11.184Z,1008.24
2023-01-22T01:55:11.196Z,1008.28
2023-01-22T01:56:11.159Z,1008.29
2023-01-22T01:57:11.155Z,1008.26
2023-01-22T01:58:11.136Z,1008.31
2023-01-22T01:59:11.127Z,1008.27
2023-01-22T02:00:11.141Z,1008.27
2023-01-22T02:01:11.152Z,1008.28
2023-01-22T02:02:11.176Z,1008.27
2023-01-22T02:03:11.087Z,1008.25
2023-01-22T02:04:11.086Z,1008.23
2023-01-22T02:05:11.086Z,1008.20
2023-01-22T02:06:11.105Z,1008.20
2023-01-22T02:07:11.053Z,1008.26
2023-01-22T02:08:11.026Z,1008.24
2023-01-22T02:09:11.033Z,1008.25
2023-01-22T02:10:11.006Z,1008.20
2023-01-22T02:11:11.018Z,1008.26
2023-01-22T02:12:11.005Z,1008.23
2023-01-22T02:13:10.988Z,1008.20
2023-01-22T02:14:10.970Z,1008.21
2023-01-22T02:15:10.963Z,1008.17
2023-01-22T02:16:10.976Z,1008.22
2023-01-22T02:17:10.933Z,1008.17
2023-01-22T02:18:10.946Z,1008.22
2023-01-22T02:19:10.915Z,1008.18
2023-01-22T02:20:10.901Z,1008.19
2023-01-22T02:21:10.889Z,1008.24
2023-01-22T02:22:10.885Z,1008.25
2023-01-22T02:23:10.874Z,1008.16
2023-01-22T02:24:10.887Z,1008.24
2023-01-22T02:25:10.848Z,1008.20
2023-01-22T02:26:10.834Z,1008.20
2023-01-22T02:27:10.825Z,1008.21
2023-01-22T02:28:10.803Z,1008.12
2023-01-22T02:29:10.802Z,1008.17
2023-01-22T02:30:10.814Z,1008.19
2023-01-22T02:31:10.952Z,1008.15
2023-01-22T02:32:10.777Z,1008.14
2023-01-22T02:33:10.781Z,1008.15
2023-01-22T02:34:10.746Z,1008.15
2023-01-22T02:35:10.741Z,1008.13
2023-01-22T02:36:10.782Z,1008.23
2023-01-22T02:37:10.723Z,1008.20
2023-01-22T02:38:10.701Z,1008.20
2023-01-22T02:39:10.694Z,1008.20
2023-01-22T02:40:10.671Z,1008.26
2023-01-22T02:41:10.671Z,1008.19
2023-01-22T02:42:10.735Z,1008.26
2023-01-22T02:43:10.651Z,1008.27
2023-01-22T02:44:10.637Z,1008.21
2023-01-22T02:45:10.619Z,1008.27
2023-01-22T02:46:10.611Z,1008.26
2023-01-22T02:47:10.621Z,1008.27
2023-01-22T02:48:10.620Z,1008.30
2023-01-22T02:49:10.584Z,1008.24
2023-01-22T02:50:10.561Z,1008.30
2023-01-22T02:51:10.589Z,1008.30
2023-01-22T02:52:10.577Z,1008.23
2023-01-22T02:53:10.531Z,1008.30
2023-01-22T02:54:10.546Z,1008.29
2023-01-22T02:55:10.545Z,1008.27
2023-01-22T02:56:10.500Z,1008.22
2023-01-22T02:57:10.499Z,1008.23
2023-01-22T02:58:10.478Z,1008.25
2023-01-22T02:59:10.471Z,1008.28
2023-01-22T03:00:10.479Z,1008.20
2023-01-22T03:01:10.470Z,1008.24
2023-01-22T03:02:10.480Z,1008.19
2023-01-22T03:03:10.420Z,1008.17
2023-01-22T03:04:10.408Z,1008.20
2023-01-22T03:05:10.407Z,1008.15
2023-01-22T03:06:10.471Z,1008.18
2023-01-22T03:07:10.378Z,1008.20
2023-01-22T03:08:10.372Z,1008.19
2023-01-22T03:09:10.357Z,1008.15
2023-01-22T03:10:10.358Z,1008.16
2023-01-22T03:11:10.343Z,1008.16
2023-01-22T03:12:10.352Z,1008.15
2023-01-22T03:13:10.311Z,1008.13
2023-01-22T03:14:10.298Z,1008.17
2023-01-22T03:15:10.288Z,1008.18
2023-01-22T03:16:10.356Z,1008.11
2023-01-22T03:17:10.293Z,1008.13
2023-01-22T03:18:10.258Z,1008.09
2023-01-22T03:19:10.247Z,1008.19
2023-01-22T03:20:10.300Z,1008.17
2023-01-22T03:21:10.228Z,1008.14
2023-01-22T03:22:10.216Z,1008.10
2023-01-22T03:23:10.225Z,1008.12
2023-01-22T03:24:10.200Z,1008.13
2023-01-22T03:25:10.190Z,1008.13
2023-01-22T03:26:10.168Z,1008.11
2023-01-22T03:27:10.168Z,1008.09
2023-01-22T03:28:10.146Z,1008.12
2023-01-22T03:29:10.156Z,1008.17
2023-01-22T03:30:10.127Z,1008.12
2023-01-22T03:31:10.156Z,1008.20
2023-01-22T03:32:10.147Z,1008.20
2023-01-22T03:33:10.095Z,1008.25
2023-01-22T03:34:10.107Z,1008.12
2023-01-22T03:35:10.067Z,1008.13
2023-01-22T03:36:10.058Z,1008.16
2023-01-22T03:37:10.060Z,1008.18
2023-01-22T03:38:10.039Z,1008.16
2023-01-22T03:39:10.027Z,1008.16
2023-01-22T03:40:10.044Z,1008.18
2023-01-22T03:41:10.057Z,1008.18
2023-01-22T03:42:10.038Z,1008.15
2023-01-22T03:43:09.980Z,1008.15
2023-01-22T03:44:09.967Z,1008.10
2023-01-22T03:45:09.977Z,1008.16
2023-01-22T03:46:10.022Z,1008.13
2023-01-22T03:47:09.938Z,1008.16
2023-01-22T03:48:09.926Z,1008.12
2023-01-22T03:49:09.918Z,1008.13
2023-01-22T03:50:09.907Z,1008.17
2023-01-22T03:51:09.944Z,1008.17
2023-01-22T03:52:09.902Z,1008.14
2023-01-22T03:53:09.873Z,1008.15
2023-01-22T03:54:09.855Z,1008.15
2023-01-22T03:55:09.857Z,1008.15
2023-01-22T03:56:09.837Z,1008.12
2023-01-22T03:57:09.847Z,1008.15
2023-01-22T03:58:09.815Z,1008.14
2023-01-22T03:59:09.807Z,1008.09
2023-01-22T04:00:09.794Z,1008.16
2023-01-22T04:01:09.888Z,1008.15
2023-01-22T04:02:09.771Z,1008.17
2023-01-22T04:03:09.791Z,1008.15
2023-01-22T04:04:09.744Z,1008.18
2023-01-22T04:05:09.734Z,1008.17
2023-01-22T04:06:09.755Z,1008.18
2023-01-22T04:07:09.713Z,1008.28
2023-01-22T04:08:09.708Z,1008.20
2023-01-22T04:09:09.749Z,1008.20
2023-01-22T04:10:09.684Z,1008.24
2023-01-22T04:11:09.682Z,1008.17
2023-01-22T04:12:09.664Z,1008.23
2023-01-22T04:13:09.654Z,1008.17
2023-01-22T04:14:09.651Z,1008.26
2023-01-22T04:15:09.677Z,1008.25
2023-01-22T04:16:09.620Z,1008.28
2023-01-22T04:17:09.613Z,1008.26
2023-01-22T04:18:09.592Z,1008.27
2023-01-22T04:19:09.585Z,1008.27
2023-01-22T04:20:09.571Z,1008.29
2023-01-22T04:21:09.595Z,1008.27
2023-01-22T04:22:09.552Z,1008.26
2023-01-22T04:23:09.541Z,1008.31
2023-01-22T04:24:09.531Z,1008.29
2023-01-22T04:25:09.523Z,1008.30
2023-01-22T04:26:09.502Z,1008.35
2023-01-22T04:27:09.523Z,1008.28
2023-01-22T04:28:09.484Z,1008.29
2023-01-22T04:29:09.484Z,1008.31
2023-01-22T04:30:09.471Z,1008.33
2023-01-22T04:31:09.564Z,1008.28
2023-01-22T04:32:09.441Z,1008.27
2023-01-22T04:33:09.450Z,1008.23
2023-01-22T04:34:09.427Z,1008.31
2023-01-22T04:35:09.412Z,1008.27
2023-01-22T04:36:09.398Z,1008.28
2023-01-22T04:37:09.389Z,1008.20
2023-01-22T04:38:09.409Z,1008.23
2023-01-22T04:39:09.368Z,1008.31
2023-01-22T04:40:09.350Z,1008.27
2023-01-22T04:41:09.342Z,1008.23
2023-01-22T04:42:09.329Z,1008.29
2023-01-22T04:43:09.320Z,1008.27
2023-01-22T04:44:09.329Z,1008.22
2023-01-22T04:45:09.300Z,1008.24
2023-01-22T04:46:09.341Z,1008.25
2023-01-22T04:47:09.301Z,1008.24
2023-01-22T04:48:09.285Z,1008.26
2023-01-22T04:49:09.260Z,1008.27
2023-01-22T04:50:09.260Z,1008.25
2023-01-22T04:51:09.290Z,1008.22
2023-01-22T04:52:09.219Z,1008.22
2023-01-22T04:53:09.211Z,1008.27
2023-01-22T04:54:09.209Z,1008.22
2023-01-22T04:55:09.189Z,1008.23
2023-01-22T04:56:09.199Z,1008.22
2023-01-22T04:57:09.168Z,1008.24
2023-01-22T04:58:09.161Z,1008.27
2023-01-22T04:59:09.153Z,1008.22
2023-01-22T05:00:09.145Z,1008.21
2023-01-22T05:01:09.147Z,1008.21
2023-01-22T05:02:09.133Z,1008.20
2023-01-22T05:03:09.108Z,1008.18
2023-01-22T05:04:09.087Z,1008.19
2023-01-22T05:05:09.086Z,1008.20
2023-01-22T05:06:09.068Z,1008.24
2023-01-22T05:07:09.079Z,1008.22
2023-01-22T05:08:09.049Z,1008.24
2023-01-22T05:09:09.037Z,1008.26
2023-01-22T05:10:09.016Z,1008.25
2023-01-22T05:11:09.019Z,1008.23
2023-01-22T05:12:08.996Z,1008.28
2023-01-22T05:13:09.019Z,1008.23
2023-01-22T05:14:10.505Z,1008.20
2023-01-22T05:15:22.567Z,1008.22
2023-01-22T05:16:10.045Z,1008.26
2023-01-22T05:17:08.954Z,1008.35
2023-01-22T05:18:08.932Z,1008.32
2023-01-22T05:19:08.945Z,1008.31
2023-01-22T05:20:08.915Z,1008.33
2023-01-22T05:21:08.912Z,1008.35
2023-01-22T05:22:08.886Z,1008.29
2023-01-22T05:23:08.876Z,1008.31
2023-01-22T05:24:08.871Z,1008.33
2023-01-22T05:25:08.877Z,1008.35
2023-01-22T05:26:08.844Z,1008.38
2023-01-22T05:27:08.835Z,1008.36
2023-01-22T05:28:08.826Z,1008.47
2023-01-22T05:29:08.813Z,1008.44
2023-01-22T05:30:08.875Z,1008.44
2023-01-22T05:31:08.903Z,1008.42
2023-01-22T05:32:08.777Z,1008.45
2023-01-22T05:33:11.204Z,1008.45
2023-01-22T05:34:08.754Z,1008.49
2023-01-22T05:35:08.744Z,1008.51
2023-01-22T05:36:08.755Z,1008.51
2023-01-22T05:37:08.727Z,1008.53
2023-01-22T05:38:08.715Z,1008.50
2023-01-22T05:39:08.705Z,1008.51
2023-01-22T05:40:08.692Z,1008.53
2023-01-22T05:41:08.687Z,1008.48
2023-01-22T05:42:08.694Z,1008.46
2023-01-22T05:43:08.663Z,1008.53
2023-01-22T05:44:08.644Z,1008.51
2023-01-22T05:45:08.633Z,1008.45
2023-01-22T05:46:08.691Z,1008.53
2023-01-22T05:47:08.617Z,1008.51
2023-01-22T05:48:08.623Z,1008.49
2023-01-22T05:49:08.605Z,1008.52
2023-01-22T05:50:08.588Z,1008.49
2023-01-22T05:51:08.603Z,1008.48
2023-01-22T05:52:08.563Z,1008.45
2023-01-22T05:53:08.563Z,1008.45
2023-01-22T05:54:08.545Z,1008.43
2023-01-22T05:55:08.543Z,1008.41
2023-01-22T05:56:08.512Z,1008.44
2023-01-22T05:57:08.529Z,1008.41
2023-01-22T05:58:08.513Z,1008.45
2023-01-22T05:59:08.516Z,1008.43
2023-01-22T06:00:08.491Z,1008.48
2023-01-22T06:01:08.462Z,1008.45
2023-01-22T06:02:08.457Z,1008.46
2023-01-22T06:03:08.435Z,1008.47
2023-01-22T06:04:08.501Z,1008.48
2023-01-22T06:05:08.500Z,1008.54
2023-01-22T06:06:08.413Z,1008.51
2023-01-22T06:07:08.392Z,1008.50
2023-01-22T06:08:08.386Z,1008.52
2023-01-22T06:09:08.372Z,1008.48
2023-01-22T06:10:08.361Z,1008.52
2023-01-22T06:11:08.371Z,1008.54
2023-01-22T06:12:08.342Z,1008.51
2023-01-22T06:13:08.325Z,1008.49
2023-01-22T06:14:08.324Z,1008.48
2023-01-22T06:15:08.308Z,1008.51
2023-01-22T06:16:08.325Z,1008.56
2023-01-22T06:17:08.301Z,1008.54
2023-01-22T06:18:08.274Z,1008.48
2023-01-22T06:19:08.276Z,1008.52
2023-01-22T06:20:08.252Z,1008.55
2023-01-22T06:21:08.265Z,1008.56
2023-01-22T06:22:08.254Z,1008.57
2023-01-22T06:23:08.215Z,1008.51
2023-01-22T06:24:08.218Z,1008.59
2023-01-22T06:25:08.194Z,1008.59
2023-01-22T06:26:08.185Z,1008.55
2023-01-22T06:27:08.176Z,1008.59
2023-01-22T06:28:08.180Z,1008.60
2023-01-22T06:29:08.151Z,1008.58
2023-01-22T06:30:08.141Z,1008.50
2023-01-22T06:31:08.224Z,1008.58
2023-01-22T06:32:08.133Z,1008.55
2023-01-22T06:33:08.099Z,1008.61
2023-01-22T06:34:08.120Z,1008.58
2023-01-22T06:35:08.079Z,1008.61
2023-01-22T06:36:08.071Z,1008.61
2023-01-22T06:37:08.060Z,1008.56
2023-01-22T06:38:08.050Z,1008.60
2023-01-22T06:39:08.044Z,1008.59
2023-01-22T06:40:08.056Z,1008.59
2023-01-22T06:41:08.009Z,1008.67
2023-01-22T06:42:08.009Z,1008.63
2023-01-22T06:43:10.431Z,1008.69
2023-01-22T06:44:07.993Z,1008.64
2023-01-22T06:45:07.969Z,1008.65
2023-01-22T06:46:08.058Z,1008.64
2023-01-22T06:47:07.949Z,1008.68
2023-01-22T06:48:07.938Z,1008.70
2023-01-22T06:49:07.938Z,1008.75
2023-01-22T06:50:07.926Z,1008.72
2023-01-22T06:51:07.977Z,1008.71
2023-01-22T06:52:07.898Z,1008.75
2023-01-22T06:53:07.889Z,1008.76
2023-01-22T06:54:07.886Z,1008.80
2023-01-22T06:55:07.869Z,1008.81
2023-01-22T06:56:07.857Z,1008.87
2023-01-22T06:57:07.873Z,1008.82
2023-01-22T06:58:07.849Z,1008.85
2023-01-22T06:59:07.822Z,1008.86
2023-01-22T07:00:07.837Z,1008.89
2023-01-22T07:01:07.810Z,1008.89
2023-01-22T07:02:07.849Z,1008.94
2023-01-22T07:03:07.776Z,1008.94
2023-01-22T07:04:07.770Z,1008.91
2023-01-22T07:05:07.809Z,1008.93
2023-01-22T07:06:07.814Z,1008.92
2023-01-22T07:07:07.730Z,1008.97
2023-01-22T07:08:07.741Z,1009.00
2023-01-22T07:09:07.706Z,1008.94
2023-01-22T07:10:07.705Z,1008.95
2023-01-22T07:11:08.022Z,1008.93
2023-01-22T07:12:07.681Z,1008.92
2023-01-22T07:13:07.677Z,1008.96
2023-01-22T07:14:07.656Z,1008.97
2023-01-22T07:15:07.639Z,1009.04
2023-01-22T07:16:07.675Z,1009.03
2023-01-22T07:17:07.615Z,1008.99
2023-01-22T07:18:07.620Z,1009.00
2023-01-22T07:19:07.617Z,1009.06
2023-01-22T07:20:07.593Z,1009.04
2023-01-22T07:21:07.585Z,1009.05
2023-01-22T07:22:07.582Z,1009.04
2023-01-22T07:23:07.554Z,1009.10
2023-01-22T07:24:07.545Z,1009.12
2023-01-22T07:25:07.577Z,1009.12
2023-01-22T07:26:07.533Z,1009.12
2023-01-22T07:27:07.505Z,1009.16
2023-01-22T07:28:07.507Z,1009.13
2023-01-22T07:29:07.487Z,1009.14
2023-01-22T07:30:07.515Z,1009.14
2023-01-22T07:31:07.580Z,1009.17
2023-01-22T07:32:07.577Z,1009.20
2023-01-22T07:33:07.447Z,1009.20
2023-01-22T07:34:07.436Z,1009.25
2023-01-22T07:35:07.423Z,1009.26
2023-01-22T07:36:07.434Z,1009.24
2023-01-22T07:37:07.396Z,1009.29
2023-01-22T07:38:07.391Z,1009.29
2023-01-22T07:39:07.374Z,1009.27
2023-01-22T07:40:07.363Z,1009.26
2023-01-22T07:41:17.118Z,1009.27
2023-01-22T07:42:08.364Z,1009.37
2023-01-22T07:43:07.370Z,1009.38
2023-01-22T07:44:07.338Z,1009.35
2023-01-22T07:45:07.304Z,1009.31
2023-01-22T07:46:07.303Z,1009.34
2023-01-22T07:47:07.373Z,1009.30
2023-01-22T07:48:07.338Z,1009.37
2023-01-22T07:49:07.268Z,1009.35
2023-01-22T07:50:07.252Z,1009.36
2023-01-22T07:51:07.271Z,1009.32
2023-01-22T07:52:07.241Z,1009.36
2023-01-22T07:53:07.224Z,1009.38
2023-01-22T07:54:07.231Z,1009.38
2023-01-22T07:55:07.202Z,1009.41
2023-01-22T07:56:07.204Z,1009.46
2023-01-22T07:57:07.192Z,1009.38
2023-01-22T07:58:07.185Z,1009.39
2023-01-22T07:59:07.154Z,1009.44
2023-01-22T08:00:07.170Z,1009.44
2023-01-22T08:01:07.175Z,1009.50
2023-01-22T08:02:07.228Z,1009.50
2023-01-22T08:03:07.112Z,1009.50
2023-01-22T08:04:07.116Z,1009.51
2023-01-22T08:05:07.118Z,1009.52
2023-01-22T08:06:07.094Z,1009.50
2023-01-22T08:07:07.082Z,1009.54
2023-01-22T08:08:07.061Z,1009.48
2023-01-22T08:09:07.075Z,1009.57
2023-01-22T08:10:07.041Z,1009.54
2023-01-22T08:11:07.040Z,1009.54
2023-01-22T08:12:07.012Z,1009.61
2023-01-22T08:13:07.026Z,1009.56
2023-01-22T08:14:06.992Z,1009.61
2023-01-22T08:15:06.981Z,1009.55
2023-01-22T08:16:06.993Z,1009.65
2023-01-22T08:17:06.951Z,1009.58
2023-01-22T08:18:06.948Z,1009.62
2023-01-22T08:19:06.939Z,1009.70
2023-01-22T08:20:07.039Z,1009.65
2023-01-22T08:21:06.915Z,1009.69
2023-01-22T08:22:06.922Z,1009.63
2023-01-22T08:23:06.897Z,1009.66
2023-01-22T08:24:06.880Z,1009.72
2023-01-22T08:25:06.922Z,1009.68
2023-01-22T08:26:06.858Z,1009.71
2023-01-22T08:27:06.840Z,1009.77
2023-01-22T08:28:06.914Z,1009.68
2023-01-22T08:29:07.717Z,1009.71
2023-01-22T08:30:06.817Z,1009.70
2023-01-22T08:31:11.296Z,1009.73
2023-01-22T08:32:07.896Z,1009.75
2023-01-22T08:33:06.784Z,1009.76
2023-01-22T08:34:06.781Z,1009.74
2023-01-22T08:35:06.762Z,1009.75
2023-01-22T08:36:06.748Z,1009.76
2023-01-22T08:37:06.736Z,1009.78
2023-01-22T08:38:06.738Z,1009.81
2023-01-22T08:39:06.728Z,1009.80
2023-01-22T08:40:06.700Z,1009.76
2023-01-22T08:41:06.687Z,1009.69
2023-01-22T08:42:06.677Z,1009.80
2023-01-22T08:43:06.788Z,1009.86
2023-01-22T08:44:06.657Z,1009.78
2023-01-22T08:45:06.661Z,1009.79
2023-01-22T08:46:06.699Z,1009.70
2023-01-22T08:47:06.617Z,1009.76
2023-01-22T08:48:06.617Z,1009.66
2023-01-22T08:49:06.596Z,1009.70
2023-01-22T08:50:06.621Z,1009.68
2023-01-22T08:51:06.632Z,1009.74
2023-01-22T08:52:06.567Z,1009.75
2023-01-22T08:53:06.563Z,1009.74
2023-01-22T08:54:06.568Z,1009.74
2023-01-22T08:55:06.527Z,1009.77
2023-01-22T08:56:06.564Z,1009.80
2023-01-22T08:57:06.516Z,1009.81
2023-01-22T08:58:06.496Z,1009.82
2023-01-22T08:59:06.645Z,1009.87
2023-01-22T09:00:06.482Z,1009.83
2023-01-22T09:01:06.532Z,1009.83
2023-01-22T09:02:06.505Z,1009.85
2023-01-22T09:03:06.495Z,1009.92
2023-01-22T09:04:06.440Z,1009.84
2023-01-22T09:05:06.465Z,1009.92
2023-01-22T09:06:06.406Z,1009.90
2023-01-22T09:07:06.395Z,1009.89
2023-01-22T09:08:06.535Z,1009.86
2023-01-22T09:09:13.413Z,1009.91
2023-01-22T09:10:06.374Z,1009.93
2023-01-22T09:11:06.362Z,1009.88
2023-01-22T09:12:06.349Z,1009.96
2023-01-22T09:13:06.387Z,1009.96
2023-01-22T09:14:06.330Z,1010.00
2023-01-22T09:15:06.312Z,1009.96
2023-01-22T09:16:06.374Z,1009.99
2023-01-22T09:17:06.283Z,1010.03
2023-01-22T09:18:06.292Z,1009.94
2023-01-22T09:19:06.286Z,1009.97
2023-01-22T09:20:06.294Z,1010.02
2023-01-22T09:21:06.300Z,1009.99
2023-01-22T09:22:06.253Z,1010.02
2023-01-22T09:23:06.223Z,1010.07
2023-01-22T09:24:06.234Z,1010.02
2023-01-22T09:25:06.220Z,1009.99
2023-01-22T09:26:06.211Z,1010.02
2023-01-22T09:27:06.180Z,1010.04
2023-01-22T09:28:06.164Z,1010.03
2023-01-22T09:29:06.155Z,1010.04
2023-01-22T09:30:06.171Z,1010.05
2023-01-22T09:31:06.156Z,1010.02
2023-01-22T09:32:06.125Z,1010.00
2023-01-22T09:33:06.121Z,1010.03
2023-01-22T09:34:06.109Z,1010.03
2023-01-22T09:35:06.096Z,1009.98
2023-01-22T09:36:06.096Z,1010.04
2023-01-22T09:37:06.064Z,1010.04
2023-01-22T09:38:06.058Z,1010.05
2023-01-22T09:39:06.041Z,1010.05
2023-01-22T09:40:06.062Z,1010.07
2023-01-22T09:41:06.016Z,1010.03
2023-01-22T09:42:06.029Z,1010.06
2023-01-22T09:43:06.000Z,1010.04
2023-01-22T09:44:05.991Z,1010.10
2023-01-22T09:45:05.977Z,1010.03
2023-01-22T09:46:05.997Z,1010.08
2023-01-22T09:47:05.971Z,1010.09
2023-01-22T09:48:05.941Z,1010.07
2023-01-22T09:49:05.931Z,1010.07
2023-01-22T09:50:05.939Z,1010.07
2023-01-22T09:51:05.976Z,1010.12
2023-01-22T09:52:05.900Z,1010.14
2023-01-22T09:53:05.905Z,1010.11
2023-01-22T09:54:05.886Z,1010.06
2023-01-22T09:55:05.871Z,1010.08
2023-01-22T09:56:05.851Z,1010.17
2023-01-22T09:57:05.842Z,1010.13
2023-01-22T09:58:05.855Z,1010.17
2023-01-22T09:59:05.880Z,1010.14
2023-01-22T10:00:05.815Z,1010.15
2023-01-22T10:01:05.897Z,1010.17
2023-01-22T10:02:05.825Z,1010.16
2023-01-22T10:03:05.785Z,1010.18
2023-01-22T10:04:05.810Z,1010.22
2023-01-22T10:05:05.789Z,1010.18
2023-01-22T10:06:05.754Z,1010.18
2023-01-22T10:07:05.735Z,1010.23
2023-01-22T10:08:05.763Z,1010.20
2023-01-22T10:09:05.719Z,1010.14
2023-01-22T10:10:05.758Z,1010.17
2023-01-22T10:11:05.692Z,1010.23
2023-01-22T10:12:05.708Z,1010.21
2023-01-22T10:13:05.664Z,1010.21
2023-01-22T10:14:05.648Z,1010.18
2023-01-22T10:15:05.638Z,1010.22
2023-01-22T10:16:05.653Z,1010.17
2023-01-22T10:17:05.627Z,1010.20
2023-01-22T10:18:05.609Z,1010.24
2023-01-22T10:19:05.612Z,1010.21
2023-01-22T10:20:05.590Z,1010.15
2023-01-22T10:21:05.589Z,1010.23
2023-01-22T10:22:05.578Z,1010.22
2023-01-22T10:23:05.559Z,1010.24
2023-01-22T10:24:05.538Z,1010.22
2023-01-22T10:25:05.537Z,1010.16
2023-01-22T10:26:05.508Z,1010.19
2023-01-22T10:27:05.526Z,1010.17
2023-01-22T10:28:05.538Z,1010.14
2023-01-22T10:29:05.490Z,1010.18
2023-01-22T10:30:05.476Z,1010.17
2023-01-22T10:31:05.540Z,1010.12
2023-01-22T10:32:05.446Z,1010.13
2023-01-22T10:33:05.441Z,1010.16
2023-01-22T10:34:05.467Z,1010.15
2023-01-22T10:35:05.418Z,1010.16
2023-01-22T10:36:05.409Z,1010.16
2023-01-22T10:37:05.399Z,1010.16
2023-01-22T10:38:05.380Z,1010.20
2023-01-22T10:39:05.397Z,1010.11
2023-01-22T10:40:05.366Z,1010.21
2023-01-22T10:41:05.375Z,1010.19
2023-01-22T10:42:05.345Z,1010.18
2023-01-22T10:43:05.328Z,1010.21
2023-01-22T10:44:05.317Z,1010.20
2023-01-22T10:45:05.326Z,1010.20
2023-01-22T10:46:05.424Z,1010.26
2023-01-22T10:47:05.285Z,1010.25
2023-01-22T10:48:05.275Z,1010.21
2023-01-22T10:49:05.266Z,1010.19
2023-01-22T10:50:05.260Z,1010.23
2023-01-22T10:51:05.324Z,1010.19
2023-01-22T10:52:05.226Z,1010.20
2023-01-22T10:53:05.222Z,1010.25
2023-01-22T10:54:05.205Z,1010.20
2023-01-22T10:55:05.195Z,1010.22
2023-01-22T10:56:05.185Z,1010.24
2023-01-22T10:57:05.198Z,1010.19
2023-01-22T10:58:05.166Z,1010.23
2023-01-22T10:59:05.155Z,1010.25
2023-01-22T11:00:05.207Z,1010.26
2023-01-22T11:01:05.200Z,1010.22
2023-01-22T11:02:05.130Z,1010.23
2023-01-22T11:03:05.125Z,1010.21
2023-01-22T11:04:05.221Z,1010.22
2023-01-22T11:05:05.091Z,1010.20
2023-01-22T11:06:05.074Z,1010.22
2023-01-22T11:07:05.057Z,1010.26
2023-01-22T11:08:05.043Z,1010.22
2023-01-22T11:09:05.071Z,1010.21
2023-01-22T11:10:05.109Z,1010.22
2023-01-22T11:11:05.031Z,1010.27
2023-01-22T11:12:05.003Z,1010.29
2023-01-22T11:13:04.995Z,1010.22
2023-01-22T11:14:05.010Z,1010.23
2023-01-22T11:15:04.998Z,1010.28
2023-01-22T11:16:04.997Z,1010.25
2023-01-22T11:17:04.949Z,1010.33
2023-01-22T11:18:04.933Z,1010.31
2023-01-22T11:19:04.971Z,1010.25
2023-01-22T11:20:04.951Z,1010.27
2023-01-22T11:21:04.905Z,1010.28
2023-01-22T11:22:04.905Z,1010.32
2023-01-22T11:23:04.904Z,1010.29
2023-01-22T11:24:04.964Z,1010.30
2023-01-22T11:25:06.745Z,1010.31
2023-01-22T11:26:04.891Z,1010.32
2023-01-22T11:27:04.866Z,1010.31
2023-01-22T11:28:04.858Z,1010.35
2023-01-22T11:29:04.924Z,1010.27
2023-01-22T11:30:04.804Z,1010.30
2023-01-22T11:31:05.058Z,1010.26
2023-01-22T11:32:04.832Z,1010.28
2023-01-22T11:33:04.814Z,1010.27
2023-01-22T11:34:05.273Z,1010.27
2023-01-22T11:35:04.769Z,1010.23
2023-01-22T11:36:04.889Z,1010.27
2023-01-22T11:37:05.558Z,1010.25
2023-01-22T11:38:04.740Z,1010.17
2023-01-22T11:39:05.470Z,1010.19
2023-01-22T11:40:04.715Z,1010.16
2023-01-22T11:41:04.673Z,1010.19
2023-01-22T11:42:04.674Z,1010.15
2023-01-22T11:43:04.744Z,1010.18
2023-01-22T11:44:04.642Z,1010.19
2023-01-22T11:45:04.650Z,1010.18
2023-01-22T11:46:04.668Z,1010.20
2023-01-22T11:47:04.626Z,1010.22
2023-01-22T11:48:04.651Z,1010.19
2023-01-22T11:49:04.633Z,1010.17
2023-01-22T11:50:04.587Z,1010.12
2023-01-22T11:51:04.602Z,1010.16
2023-01-22T11:52:04.552Z,1010.15
2023-01-22T11:53:04.566Z,1010.13
2023-01-22T11:54:04.531Z,1010.19
2023-01-22T11:55:04.550Z,1010.13
2023-01-22T11:56:04.511Z,1010.16
2023-01-22T11:57:04.573Z,1010.14
2023-01-22T11:58:04.511Z,1010.14
2023-01-22T11:59:04.489Z,1010.17
2023-01-22T12:00:04.486Z,1010.14
2023-01-22T12:01:04.480Z,1010.14
2023-01-22T12:02:04.449Z,1010.15
2023-01-22T12:03:04.444Z,1010.13
2023-01-22T12:04:04.470Z,1010.10
2023-01-22T12:05:04.419Z,1010.08
2023-01-22T12:06:04.445Z,1010.04